MDT,Max TemperatureF,Mean TemperatureF,Min TemperatureF,Max Dew PointF,MeanDew PointF,Min DewpointF,Max Humidity, Mean Humidity, Min Humidity, Max Sea Level PressureIn, Mean Sea Level PressureIn, Min Sea Level PressureIn, Max VisibilityMiles, Mean VisibilityMiles, Min VisibilityMiles, Max Wind SpeedMPH, Mean Wind SpeedMPH, Max Gust SpeedMPH,PrecipitationIn, CloudCover, Events, WindDirDegrees
2014-3-1,-9,-14,-19,-14,-21,-24,79,71,63,30.53,30.40,30.14,10,6,2,16,10,18,0.01,7,Snow,93
2014-3-2,1,-7,-16,-5,-14,-22,79,72,64,30.49,30.31,30.07,10,10,4,14,9,16,T,7,Snow,95
2014-3-3,40,20,0,31,13,-3,91,79,67,30.05,29.93,29.77,10,10,10,22,5,26,T,3,,247
2014-3-4,43,38,33,30,27,24,82,66,49,29.94,29.89,29.82,10,10,10,21,11,24,0.00,3,,243
2014-3-5,45,40,34,33,27,23,70,60,49,29.92,29.82,29.69,10,10,10,25,17,30,T,2,Rain,228
2014-3-6,47,31,15,36,27,13,100,77,53,30.01,29.72,29.57,10,6,0,30,10,42,0.03,7,Fog-Rain,260
2014-3-7,42,29,16,31,24,14,100,79,57,30.21,30.09,29.91,10,9,2,13,6,17,0.00,7,,270
2014-3-8,52,39,26,30,26,22,85,59,32,30.18,30.04,29.80,10,10,10,33,16,44,0.00,0,,224
2014-3-9,57,50,43,37,32,26,65,54,42,29.83,29.79,29.75,10,10,10,36,22,44,0.00,1,,236
2014-3-10,44,38,31,36,33,31,100,85,70,30.01,29.81,29.74,10,4,0,14,3,16,0.77,8,Fog-Rain-Snow,340
2014-3-11,37,26,14,31,24,14,100,74,48,30.43,30.22,29.94,10,5,0,15,8,17,T,4,Fog-Snow,259
2014-3-12,47,37,26,28,23,19,85,65,45,30.32,30.21,30.02,10,10,10,16,7,19,0.00,0,,224
2014-3-13,45,36,27,28,24,19,89,62,38,30.01,29.90,29.84,10,10,10,22,13,32,0.00,2,,249
2014-3-14,51,39,26,34,26,19,85,61,37,29.95,29.85,29.78,10,10,10,17,9,23,0.02,4,Rain,246
2014-3-15,45,38,31,33,30,24,100,73,45,30.30,30.14,29.88,10,6,0,28,14,42,0.12,7,Fog-Snow,295
2014-3-16,57,46,35,29,23,20,59,44,29,30.15,29.96,29.74,10,10,10,31,15,36,0.00,0,,236
2014-3-17,42,35,28,33,30,20,100,72,44,29.92,29.62,29.39,10,5,0,22,9,29,0.12,7,Fog-Snow,322
2014-3-18,38,29,20,28,24,19,100,80,59,30.12,30.05,29.92,10,8,0,21,10,27,0.02,7,Fog-Snow,262
2014-3-19,44,32,20,21,17,14,84,57,30,30.09,29.98,29.86,10,10,10,21,9,26,0.00,1,,232
2014-3-20,39,30,21,25,21,12,85,60,35,30.10,29.89,29.76,10,9,0,33,18,44,0.05,7,Fog-Snow,279
2014-3-21,21,16,11,21,13,7,96,85,74,30.53,30.32,30.04,10,5,0,21,11,28,0.03,8,Fog-Snow,324
2014-3-22,22,15,8,13,7,5,100,78,56,30.58,30.47,30.32,10,8,3,10,5,,T,6,Snow,305
2014-3-23,24,20,15,17,16,14,92,88,84,30.41,30.26,30.09,10,7,1,16,6,19,0.11,8,Snow,292
2014-3-24,17,12,6,16,11,4,96,85,73,30.56,30.41,30.24,10,5,1,13,8,20,0.02,7,Snow,269
2014-3-25,42,26,10,29,19,4,85,71,57,30.43,29.96,29.55,10,10,10,16,7,18,0.00,2,,106
2014-3-26,41,33,24,31,28,24,100,78,55,29.66,29.58,29.53,10,8,1,14,5,17,0.03,6,Snow,278
2014-3-27,38,29,20,32,26,21,100,85,70,29.94,29.71,29.60,10,4,0,24,8,28,0.11,8,Fog-Snow,316
2014-3-28,48,31,14,28,21,13,100,71,42,30.06,29.93,29.82,10,8,2,23,8,28,T,6,Snow,246
2014-3-29,48,41,34,36,28,22,76,63,49,29.80,29.74,29.68,10,10,10,26,12,32,T,4,Rain,246
2014-3-30,44,35,25,30,26,21,100,77,53,30.02,29.85,29.75,10,6,1,20,10,25,0.03,6,Snow,355
2014-3-31,36,28,20,26,23,17,100,82,64,30.16,30.05,29.96,10,9,2,15,10,21,0.00,6,,96